sensor_id;sensor_type;location;lat;lon;timestamp;temperature;humidity
23116;DHT22;11727;52.134;5.052;2023-06-14T00:01:41;19.60;99.90
23116;DHT22;11727;52.134;5.052;2023-06-14T00:04:11;19.50;99.90
23116;DHT22;11727;52.134;5.052;2023-06-14T00:06:36;19.50;99.90
23116;DHT22;11727;52.134;5.052;2023-06-14T00:09:03;19.40;99.90
23116;DHT22;11727;52.134;5.052;2023-06-14T00:11:32;19.40;99.90
23116;DHT22;11727;52.134;5.052;2023-06-14T00:13:58;19.30;99.90
23116;DHT22;11727;52.134;5.052;2023-06-14T00:16:24;19.20;99.90
23116;DHT22;11727;52.134;5.052;2023-06-14T00:18:50;19.20;99.90
23116;DHT22;11727;52.134;5.052;2023-06-14T00:21:18;19.10;99.90
23116;DHT22;11727;52.134;5.052;2023-06-14T00:23:44;19.20;99.90
23116;DHT22;11727;52.134;5.052;2023-06-14T00:26:10;19.10;99.90
23116;DHT22;11727;52.134;5.052;2023-06-14T00:28:35;19.10;99.90
23116;DHT22;11727;52.134;5.052;2023-06-14T00:31:01;19.00;99.90
23116;DHT22;11727;52.134;5.052;2023-06-14T00:33:27;19.00;99.90
23116;DHT22;11727;52.134;5.052;2023-06-14T00:35:52;18.90;99.90
23116;DHT22;11727;52.134;5.052;2023-06-14T00:38:21;18.90;99.90
23116;DHT22;11727;52.134;5.052;2023-06-14T00:40:47;18.90;99.90
23116;DHT22;11727;52.134;5.052;2023-06-14T00:43:12;18.80;99.90
23116;DHT22;11727;52.134;5.052;2023-06-14T00:45:38;18.80;99.90
23116;DHT22;11727;52.134;5.052;2023-06-14T00:48:04;18.80;99.90
23116;DHT22;11727;52.134;5.052;2023-06-14T00:50:31;18.70;99.90
23116;DHT22;11727;52.134;5.052;2023-06-14T00:52:59;18.70;99.90
23116;DHT22;11727;52.134;5.052;2023-06-14T00:55:25;18.70;99.90
23116;DHT22;11727;52.134;5.052;2023-06-14T00:57:51;18.60;99.90
23116;DHT22;11727;52.134;5.052;2023-06-14T01:00:17;18.60;99.90
23116;DHT22;11727;52.134;5.052;2023-06-14T01:02:42;18.60;99.90
23116;DHT22;11727;52.134;5.052;2023-06-14T01:05:08;18.60;99.90
23116;DHT22;11727;52.134;5.052;2023-06-14T01:08:08;18.60;99.90
23116;DHT22;11727;52.134;5.052;2023-06-14T01:13:38;18.50;99.90
23116;DHT22;11727;52.134;5.052;2023-06-14T01:16:05;18.50;99.90
23116;DHT22;11727;52.134;5.052;2023-06-14T01:18:31;18.40;99.90
23116;DHT22;11727;52.134;5.052;2023-06-14T01:20:57;18.40;99.90
23116;DHT22;11727;52.134;5.052;2023-06-14T01:23:23;18.40;99.90
23116;DHT22;11727;52.134;5.052;2023-06-14T01:25:49;18.30;99.90
23116;DHT22;11727;52.134;5.052;2023-06-14T01:28:19;18.30;99.90
23116;DHT22;11727;52.134;5.052;2023-06-14T01:30:48;18.30;99.90
23116;DHT22;11727;52.134;5.052;2023-06-14T01:33:16;18.20;99.90
23116;DHT22;11727;52.134;5.052;2023-06-14T01:35:44;18.20;99.90
23116;DHT22;11727;52.134;5.052;2023-06-14T01:38:12;18.20;99.90
23116;DHT22;11727;52.134;5.052;2023-06-14T01:40:39;18.20;99.90
23116;DHT22;11727;52.134;5.052;2023-06-14T01:43:05;18.20;99.90
23116;DHT22;11727;52.134;5.052;2023-06-14T01:45:31;18.10;99.90
23116;DHT22;11727;52.134;5.052;2023-06-14T01:47:58;18.10;99.90
23116;DHT22;11727;52.134;5.052;2023-06-14T01:50:31;18.10;99.90
23116;DHT22;11727;52.134;5.052;2023-06-14T01:52:57;18.10;99.90
23116;DHT22;11727;52.134;5.052;2023-06-14T01:55:23;18.10;99.90
23116;DHT22;11727;52.134;5.052;2023-06-14T01:57:50;18.10;99.90
23116;DHT22;11727;52.134;5.052;2023-06-14T02:00:16;18.00;99.90
23116;DHT22;11727;52.134;5.052;2023-06-14T02:02:44;18.00;99.90
23116;DHT22;11727;52.134;5.052;2023-06-14T02:05:09;17.90;99.90
23116;DHT22;11727;52.134;5.052;2023-06-14T02:07:36;17.90;99.90
23116;DHT22;11727;52.134;5.052;2023-06-14T02:10:03;17.90;99.90
23116;DHT22;11727;52.134;5.052;2023-06-14T02:12:29;17.80;99.90
23116;DHT22;11727;52.134;5.052;2023-06-14T02:14:55;17.80;99.90
23116;DHT22;11727;52.134;5.052;2023-06-14T02:17:22;17.80;99.90
23116;DHT22;11727;52.134;5.052;2023-06-14T02:19:47;17.70;99.90
23116;DHT22;11727;52.134;5.052;2023-06-14T02:22:14;17.70;99.90
23116;DHT22;11727;52.134;5.052;2023-06-14T02:24:41;17.70;99.90
23116;DHT22;11727;52.134;5.052;2023-06-14T02:27:07;17.70;99.90
23116;DHT22;11727;52.134;5.052;2023-06-14T02:29:35;17.60;99.90
23116;DHT22;11727;52.134;5.052;2023-06-14T02:32:01;17.60;99.90
23116;DHT22;11727;52.134;5.052;2023-06-14T02:34:26;17.60;99.90
23116;DHT22;11727;52.134;5.052;2023-06-14T02:36:52;17.60;99.90
23116;DHT22;11727;52.134;5.052;2023-06-14T02:39:18;17.60;99.90
23116;DHT22;11727;52.134;5.052;2023-06-14T02:41:46;17.60;99.90
23116;DHT22;11727;52.134;5.052;2023-06-14T02:44:14;17.50;99.90
23116;DHT22;11727;52.134;5.052;2023-06-14T02:46:40;17.50;99.90
23116;DHT22;11727;52.134;5.052;2023-06-14T02:49:06;17.40;99.90
23116;DHT22;11727;52.134;5.052;2023-06-14T02:51:32;17.40;99.90
23116;DHT22;11727;52.134;5.052;2023-06-14T02:53:57;17.40;99.90
23116;DHT22;11727;52.134;5.052;2023-06-14T02:56:23;17.40;99.90
23116;DHT22;11727;52.134;5.052;2023-06-14T02:58:48;17.30;99.90
23116;DHT22;11727;52.134;5.052;2023-06-14T03:01:15;17.30;99.90
23116;DHT22;11727;52.134;5.052;2023-06-14T03:03:42;17.30;99.90
23116;DHT22;11727;52.134;5.052;2023-06-14T03:06:07;17.20;99.90
23116;DHT22;11727;52.134;5.052;2023-06-14T03:08:33;17.20;99.90
23116;DHT22;11727;52.134;5.052;2023-06-14T03:11:04;17.20;99.90
23116;DHT22;11727;52.134;5.052;2023-06-14T03:13:36;17.10;99.90
23116;DHT22;11727;52.134;5.052;2023-06-14T03:16:02;17.10;99.90
23116;DHT22;11727;52.134;5.052;2023-06-14T03:18:29;17.10;99.90
23116;DHT22;11727;52.134;5.052;2023-06-14T03:20:56;17.10;99.90
23116;DHT22;11727;52.134;5.052;2023-06-14T03:23:24;17.10;99.90
23116;DHT22;11727;52.134;5.052;2023-06-14T03:25:50;17.00;99.90
23116;DHT22;11727;52.134;5.052;2023-06-14T03:28:17;17.00;99.90
23116;DHT22;11727;52.134;5.052;2023-06-14T03:30:42;17.00;99.90
23116;DHT22;11727;52.134;5.052;2023-06-14T03:33:08;17.00;99.90
23116;DHT22;11727;52.134;5.052;2023-06-14T03:35:34;17.00;99.90
23116;DHT22;11727;52.134;5.052;2023-06-14T03:38:00;17.00;99.90
23116;DHT22;11727;52.134;5.052;2023-06-14T03:40:26;17.00;99.90
23116;DHT22;11727;52.134;5.052;2023-06-14T03:42:54;17.00;99.90
23116;DHT22;11727;52.134;5.052;2023-06-14T03:45:19;17.00;99.90
23116;DHT22;11727;52.134;5.052;2023-06-14T03:47:46;17.00;99.90
23116;DHT22;11727;52.134;5.052;2023-06-14T03:50:12;16.90;99.90
23116;DHT22;11727;52.134;5.052;2023-06-14T03:52:37;16.90;99.90
23116;DHT22;11727;52.134;5.052;2023-06-14T03:55:04;16.90;99.90
23116;DHT22;11727;52.134;5.052;2023-06-14T03:57:30;16.90;99.90
23116;DHT22;11727;52.134;5.052;2023-06-14T03:59:56;16.90;99.90
23116;DHT22;11727;52.134;5.052;2023-06-14T04:02:21;16.90;99.90
23116;DHT22;11727;52.134;5.052;2023-06-14T04:04:48;16.90;99.90
23116;DHT22;11727;52.134;5.052;2023-06-14T04:07:14;16.80;99.90
23116;DHT22;11727;52.134;5.052;2023-06-14T04:09:41;16.80;99.90
23116;DHT22;11727;52.134;5.052;2023-06-14T04:12:07;16.80;99.90
23116;DHT22;11727;52.134;5.052;2023-06-14T04:14:39;16.80;99.90
23116;DHT22;11727;52.134;5.052;2023-06-14T04:17:05;16.80;99.90
23116;DHT22;11727;52.134;5.052;2023-06-14T04:19:30;16.80;99.90
23116;DHT22;11727;52.134;5.052;2023-06-14T04:21:56;16.80;99.90
23116;DHT22;11727;52.134;5.052;2023-06-14T04:24:22;16.80;99.90
23116;DHT22;11727;52.134;5.052;2023-06-14T04:26:49;16.80;99.90
23116;DHT22;11727;52.134;5.052;2023-06-14T04:29:15;16.80;99.90
23116;DHT22;11727;52.134;5.052;2023-06-14T04:31:42;16.80;99.90
23116;DHT22;11727;52.134;5.052;2023-06-14T04:34:10;16.80;99.90
23116;DHT22;11727;52.134;5.052;2023-06-14T04:36:42;16.80;99.90
23116;DHT22;11727;52.134;5.052;2023-06-14T04:39:19;16.90;99.90
23116;DHT22;11727;52.134;5.052;2023-06-14T04:41:46;16.90;99.90
23116;DHT22;11727;52.134;5.052;2023-06-14T04:44:13;16.90;99.90
23116;DHT22;11727;52.134;5.052;2023-06-14T04:46:39;16.90;99.90
23116;DHT22;11727;52.134;5.052;2023-06-14T04:49:12;16.90;99.90
23116;DHT22;11727;52.134;5.052;2023-06-14T04:51:41;17.00;99.90
23116;DHT22;11727;52.134;5.052;2023-06-14T04:54:08;17.00;99.90
23116;DHT22;11727;52.134;5.052;2023-06-14T04:56:35;17.10;99.90
23116;DHT22;11727;52.134;5.052;2023-06-14T04:59:03;17.10;99.90
23116;DHT22;11727;52.134;5.052;2023-06-14T05:01:30;17.10;99.90
23116;DHT22;11727;52.134;5.052;2023-06-14T05:03:57;17.20;99.90
23116;DHT22;11727;52.134;5.052;2023-06-14T05:06:23;17.30;99.90
23116;DHT22;11727;52.134;5.052;2023-06-14T05:08:49;17.30;99.90
23116;DHT22;11727;52.134;5.052;2023-06-14T05:11:15;17.30;99.90
23116;DHT22;11727;52.134;5.052;2023-06-14T05:13:42;17.40;99.90
23116;DHT22;11727;52.134;5.052;2023-06-14T05:16:08;17.40;99.90
23116;DHT22;11727;52.134;5.052;2023-06-14T05:18:34;17.50;99.90
23116;DHT22;11727;52.134;5.052;2023-06-14T05:21:01;17.60;99.90
23116;DHT22;11727;52.134;5.052;2023-06-14T05:23:26;17.70;99.90
23116;DHT22;11727;52.134;5.052;2023-06-14T05:25:52;17.70;99.90
23116;DHT22;11727;52.134;5.052;2023-06-14T05:28:18;17.80;99.90
23116;DHT22;11727;52.134;5.052;2023-06-14T05:30:44;17.80;99.90
23116;DHT22;11727;52.134;5.052;2023-06-14T05:33:09;17.90;99.90
23116;DHT22;11727;52.134;5.052;2023-06-14T05:35:35;17.90;99.90
23116;DHT22;11727;52.134;5.052;2023-06-14T05:38:01;18.00;99.90
23116;DHT22;11727;52.134;5.052;2023-06-14T05:40:26;18.10;99.90
23116;DHT22;11727;52.134;5.052;2023-06-14T05:42:52;18.20;99.90
23116;DHT22;11727;52.134;5.052;2023-06-14T05:45:18;18.20;99.90
23116;DHT22;11727;52.134;5.052;2023-06-14T05:47:43;18.20;99.90
23116;DHT22;11727;52.134;5.052;2023-06-14T05:50:09;18.30;99.90
23116;DHT22;11727;52.134;5.052;2023-06-14T05:52:35;18.40;99.90
23116;DHT22;11727;52.134;5.052;2023-06-14T05:55:04;18.50;99.90
23116;DHT22;11727;52.134;5.052;2023-06-14T05:57:31;18.60;99.90
23116;DHT22;11727;52.134;5.052;2023-06-14T05:59:57;18.70;99.90
23116;DHT22;11727;52.134;5.052;2023-06-14T06:02:22;18.80;99.90
23116;DHT22;11727;52.134;5.052;2023-06-14T06:04:48;19.00;99.90
23116;DHT22;11727;52.134;5.052;2023-06-14T06:07:13;19.10;99.90
23116;DHT22;11727;52.134;5.052;2023-06-14T06:09:39;19.20;99.90
23116;DHT22;11727;52.134;5.052;2023-06-14T06:12:06;19.20;99.90
23116;DHT22;11727;52.134;5.052;2023-06-14T06:14:32;19.30;99.90
23116;DHT22;11727;52.134;5.052;2023-06-14T06:16:58;19.50;99.90
23116;DHT22;11727;52.134;5.052;2023-06-14T06:19:24;19.60;99.90
23116;DHT22;11727;52.134;5.052;2023-06-14T06:21:50;19.70;99.90
23116;DHT22;11727;52.134;5.052;2023-06-14T06:24:15;19.80;99.90
23116;DHT22;11727;52.134;5.052;2023-06-14T06:26:41;20.00;99.90
23116;DHT22;11727;52.134;5.052;2023-06-14T06:29:07;20.20;99.90
23116;DHT22;11727;52.134;5.052;2023-06-14T06:31:32;20.30;99.90
23116;DHT22;11727;52.134;5.052;2023-06-14T06:33:58;20.40;99.90
23116;DHT22;11727;52.134;5.052;2023-06-14T06:36:24;20.50;99.90
23116;DHT22;11727;52.134;5.052;2023-06-14T06:38:50;20.60;99.90
23116;DHT22;11727;52.134;5.052;2023-06-14T06:41:16;20.80;99.90
23116;DHT22;11727;52.134;5.052;2023-06-14T06:43:41;20.90;99.90
23116;DHT22;11727;52.134;5.052;2023-06-14T06:46:07;21.10;99.90
23116;DHT22;11727;52.134;5.052;2023-06-14T06:48:33;21.20;99.90
23116;DHT22;11727;52.134;5.052;2023-06-14T06:50:58;21.40;99.90
23116;DHT22;11727;52.134;5.052;2023-06-14T06:53:24;21.50;99.90
23116;DHT22;11727;52.134;5.052;2023-06-14T06:55:50;21.60;99.90
23116;DHT22;11727;52.134;5.052;2023-06-14T06:58:16;21.70;99.90
23116;DHT22;11727;52.134;5.052;2023-06-14T07:00:41;21.80;99.90
23116;DHT22;11727;52.134;5.052;2023-06-14T07:03:07;21.90;99.90
23116;DHT22;11727;52.134;5.052;2023-06-14T07:05:33;22.10;99.90
23116;DHT22;11727;52.134;5.052;2023-06-14T07:07:59;22.20;99.90
23116;DHT22;11727;52.134;5.052;2023-06-14T07:10:24;22.30;99.90
23116;DHT22;11727;52.134;5.052;2023-06-14T07:12:51;22.30;99.90
23116;DHT22;11727;52.134;5.052;2023-06-14T07:15:16;22.40;99.90
23116;DHT22;11727;52.134;5.052;2023-06-14T07:17:42;22.60;99.90
23116;DHT22;11727;52.134;5.052;2023-06-14T07:20:08;22.70;99.90
23116;DHT22;11727;52.134;5.052;2023-06-14T07:22:39;22.90;99.90
23116;DHT22;11727;52.134;5.052;2023-06-14T07:25:07;23.00;99.90
23116;DHT22;11727;52.134;5.052;2023-06-14T07:27:33;23.10;99.90
23116;DHT22;11727;52.134;5.052;2023-06-14T07:29:59;23.20;99.90
23116;DHT22;11727;52.134;5.052;2023-06-14T07:32:25;23.30;99.90
23116;DHT22;11727;52.134;5.052;2023-06-14T07:34:50;23.30;99.90
23116;DHT22;11727;52.134;5.052;2023-06-14T07:37:16;23.40;99.90
23116;DHT22;11727;52.134;5.052;2023-06-14T07:39:41;23.50;99.90
23116;DHT22;11727;52.134;5.052;2023-06-14T07:42:07;23.60;99.90
23116;DHT22;11727;52.134;5.052;2023-06-14T07:44:33;23.80;99.90
23116;DHT22;11727;52.134;5.052;2023-06-14T07:46:58;24.00;99.90
23116;DHT22;11727;52.134;5.052;2023-06-14T07:49:25;24.10;99.90
23116;DHT22;11727;52.134;5.052;2023-06-14T07:51:51;24.20;99.90
23116;DHT22;11727;52.134;5.052;2023-06-14T07:54:16;24.40;99.90
23116;DHT22;11727;52.134;5.052;2023-06-14T07:56:42;24.50;99.90
23116;DHT22;11727;52.134;5.052;2023-06-14T07:59:08;24.70;99.90
23116;DHT22;11727;52.134;5.052;2023-06-14T08:01:34;24.70;99.90
23116;DHT22;11727;52.134;5.052;2023-06-14T08:04:00;24.90;99.90
23116;DHT22;11727;52.134;5.052;2023-06-14T08:06:26;24.90;99.90
23116;DHT22;11727;52.134;5.052;2023-06-14T08:08:52;25.00;99.90
23116;DHT22;11727;52.134;5.052;2023-06-14T08:11:18;25.10;99.90
23116;DHT22;11727;52.134;5.052;2023-06-14T08:13:43;25.10;99.90
23116;DHT22;11727;52.134;5.052;2023-06-14T08:16:09;25.20;99.90
23116;DHT22;11727;52.134;5.052;2023-06-14T08:18:36;25.30;99.90
23116;DHT22;11727;52.134;5.052;2023-06-14T08:21:01;25.30;99.90
23116;DHT22;11727;52.134;5.052;2023-06-14T08:23:28;25.50;99.90
23116;DHT22;11727;52.134;5.052;2023-06-14T08:25:54;25.60;99.90
23116;DHT22;11727;52.134;5.052;2023-06-14T08:28:20;25.60;99.90
23116;DHT22;11727;52.134;5.052;2023-06-14T08:30:46;25.70;99.90
23116;DHT22;11727;52.134;5.052;2023-06-14T08:33:11;25.80;99.90
23116;DHT22;11727;52.134;5.052;2023-06-14T08:35:37;25.80;99.90
23116;DHT22;11727;52.134;5.052;2023-06-14T08:38:04;26.00;99.90
23116;DHT22;11727;52.134;5.052;2023-06-14T08:40:31;26.00;99.90
23116;DHT22;11727;52.134;5.052;2023-06-14T08:42:56;26.10;99.90
23116;DHT22;11727;52.134;5.052;2023-06-14T08:45:23;26.30;99.90
23116;DHT22;11727;52.134;5.052;2023-06-14T08:47:50;26.40;99.90
23116;DHT22;11727;52.134;5.052;2023-06-14T08:50:24;26.50;99.90
23116;DHT22;11727;52.134;5.052;2023-06-14T08:52:54;26.40;99.30
23116;DHT22;11727;52.134;5.052;2023-06-14T08:55:21;26.50;99.00
23116;DHT22;11727;52.134;5.052;2023-06-14T08:57:51;26.60;99.90
23116;DHT22;11727;52.134;5.052;2023-06-14T09:00:19;26.70;98.70
23116;DHT22;11727;52.134;5.052;2023-06-14T09:02:46;26.80;98.90
23116;DHT22;11727;52.134;5.052;2023-06-14T09:05:12;26.90;99.50
23116;DHT22;11727;52.134;5.052;2023-06-14T09:07:40;27.00;99.90
23116;DHT22;11727;52.134;5.052;2023-06-14T09:10:11;27.20;99.20
23116;DHT22;11727;52.134;5.052;2023-06-14T09:12:37;27.40;99.10
23116;DHT22;11727;52.134;5.052;2023-06-14T09:15:05;27.50;97.80
23116;DHT22;11727;52.134;5.052;2023-06-14T09:17:38;27.60;98.10
23116;DHT22;11727;52.134;5.052;2023-06-14T09:20:08;27.60;99.00
23116;DHT22;11727;52.134;5.052;2023-06-14T09:22:39;27.70;98.00
23116;DHT22;11727;52.134;5.052;2023-06-14T09:25:05;27.80;96.40
23116;DHT22;11727;52.134;5.052;2023-06-14T09:27:31;27.80;95.90
23116;DHT22;11727;52.134;5.052;2023-06-14T09:29:57;27.90;97.20
23116;DHT22;11727;52.134;5.052;2023-06-14T09:32:23;28.00;95.70
23116;DHT22;11727;52.134;5.052;2023-06-14T09:34:50;28.00;96.20
23116;DHT22;11727;52.134;5.052;2023-06-14T09:37:29;28.00;95.90
23116;DHT22;11727;52.134;5.052;2023-06-14T09:39:55;28.10;96.00
23116;DHT22;11727;52.134;5.052;2023-06-14T09:42:21;28.10;96.90
23116;DHT22;11727;52.134;5.052;2023-06-14T09:44:52;28.20;96.90
23116;DHT22;11727;52.134;5.052;2023-06-14T09:47:18;28.20;95.70
23116;DHT22;11727;52.134;5.052;2023-06-14T09:49:44;28.20;95.70
23116;DHT22;11727;52.134;5.052;2023-06-14T09:52:15;28.30;96.90
23116;DHT22;11727;52.134;5.052;2023-06-14T09:54:41;28.40;95.70
23116;DHT22;11727;52.134;5.052;2023-06-14T09:57:21;28.50;96.60
23116;DHT22;11727;52.134;5.052;2023-06-14T09:59:48;28.70;95.60
23116;DHT22;11727;52.134;5.052;2023-06-14T10:02:28;28.60;95.50
23116;DHT22;11727;52.134;5.052;2023-06-14T10:05:05;28.70;94.70
23116;DHT22;11727;52.134;5.052;2023-06-14T10:10:06;28.60;94.20
23116;DHT22;11727;52.134;5.052;2023-06-14T10:12:32;28.50;94.90
23116;DHT22;11727;52.134;5.052;2023-06-14T10:14:58;28.40;94.60
23116;DHT22;11727;52.134;5.052;2023-06-14T10:17:46;28.50;94.60
23116;DHT22;11727;52.134;5.052;2023-06-14T10:23:22;28.30;93.50
23116;DHT22;11727;52.134;5.052;2023-06-14T10:25:56;28.40;94.30
23116;DHT22;11727;52.134;5.052;2023-06-14T10:28:22;28.30;93.40
23116;DHT22;11727;52.134;5.052;2023-06-14T10:31:05;28.20;93.50
23116;DHT22;11727;52.134;5.052;2023-06-14T10:33:32;28.10;93.00
23116;DHT22;11727;52.134;5.052;2023-06-14T10:36:25;28.20;93.40
23116;DHT22;11727;52.134;5.052;2023-06-14T10:39:09;28.10;93.00
23116;DHT22;11727;52.134;5.052;2023-06-14T10:41:37;28.10;94.00
23116;DHT22;11727;52.134;5.052;2023-06-14T10:47:00;28.20;94.40
23116;DHT22;11727;52.134;5.052;2023-06-14T10:49:44;28.30;93.70
23116;DHT22;11727;52.134;5.052;2023-06-14T10:52:15;28.50;94.50
23116;DHT22;11727;52.134;5.052;2023-06-14T10:57:55;28.50;93.40
23116;DHT22;11727;52.134;5.052;2023-06-14T11:00:25;28.50;94.00
23116;DHT22;11727;52.134;5.052;2023-06-14T11:05:50;28.40;93.50
23116;DHT22;11727;52.134;5.052;2023-06-14T11:11:09;28.30;93.00
23116;DHT22;11727;52.134;5.052;2023-06-14T11:13:43;28.20;92.50
23116;DHT22;11727;52.134;5.052;2023-06-14T11:16:13;28.10;92.40
23116;DHT22;11727;52.134;5.052;2023-06-14T11:18:41;27.90;93.00
23116;DHT22;11727;52.134;5.052;2023-06-14T11:21:08;27.90;93.70
23116;DHT22;11727;52.134;5.052;2023-06-14T11:23:35;27.80;93.60
23116;DHT22;11727;52.134;5.052;2023-06-14T11:26:00;27.90;93.70
23116;DHT22;11727;52.134;5.052;2023-06-14T11:28:36;28.00;93.20
23116;DHT22;11727;52.134;5.052;2023-06-14T11:31:03;27.90;93.10
23116;DHT22;11727;52.134;5.052;2023-06-14T11:33:29;28.00;93.50
23116;DHT22;11727;52.134;5.052;2023-06-14T11:35:54;28.00;93.50
23116;DHT22;11727;52.134;5.052;2023-06-14T11:38:20;28.00;94.20
23116;DHT22;11727;52.134;5.052;2023-06-14T11:40:46;28.00;93.80
23116;DHT22;11727;52.134;5.052;2023-06-14T11:43:11;27.80;93.10
23116;DHT22;11727;52.134;5.052;2023-06-14T11:45:38;27.80;93.10
23116;DHT22;11727;52.134;5.052;2023-06-14T11:48:04;27.80;93.10
23116;DHT22;11727;52.134;5.052;2023-06-14T11:50:31;27.80;93.10
23116;DHT22;11727;52.134;5.052;2023-06-14T11:53:00;27.80;93.40
23116;DHT22;11727;52.134;5.052;2023-06-14T11:55:41;27.80;93.50
23116;DHT22;11727;52.134;5.052;2023-06-14T11:58:10;27.70;93.50
23116;DHT22;11727;52.134;5.052;2023-06-14T12:00:36;27.70;92.70
23116;DHT22;11727;52.134;5.052;2023-06-14T12:03:02;27.70;93.40
23116;DHT22;11727;52.134;5.052;2023-06-14T12:05:28;27.70;92.60
23116;DHT22;11727;52.134;5.052;2023-06-14T12:08:02;27.60;93.30
23116;DHT22;11727;52.134;5.052;2023-06-14T12:10:29;27.60;93.40
23116;DHT22;11727;52.134;5.052;2023-06-14T12:12:58;27.60;93.00
23116;DHT22;11727;52.134;5.052;2023-06-14T12:15:24;27.60;93.00
23116;DHT22;11727;52.134;5.052;2023-06-14T12:17:54;27.50;92.10
23116;DHT22;11727;52.134;5.052;2023-06-14T12:20:20;27.40;92.80
23116;DHT22;11727;52.134;5.052;2023-06-14T12:22:54;27.40;92.80
23116;DHT22;11727;52.134;5.052;2023-06-14T12:25:28;27.40;92.60
23116;DHT22;11727;52.134;5.052;2023-06-14T12:27:56;27.40;92.60
23116;DHT22;11727;52.134;5.052;2023-06-14T12:30:22;27.40;93.00
23116;DHT22;11727;52.134;5.052;2023-06-14T12:32:47;27.50;93.30
23116;DHT22;11727;52.134;5.052;2023-06-14T12:35:14;27.50;93.20
23116;DHT22;11727;52.134;5.052;2023-06-14T12:37:40;27.70;93.30
23116;DHT22;11727;52.134;5.052;2023-06-14T12:40:06;27.70;92.80
23116;DHT22;11727;52.134;5.052;2023-06-14T12:42:33;27.80;93.00
23116;DHT22;11727;52.134;5.052;2023-06-14T12:44:59;27.70;92.80
23116;DHT22;11727;52.134;5.052;2023-06-14T12:47:25;27.70;93.00
23116;DHT22;11727;52.134;5.052;2023-06-14T12:49:50;27.70;92.30
23116;DHT22;11727;52.134;5.052;2023-06-14T12:52:16;27.60;92.20
23116;DHT22;11727;52.134;5.052;2023-06-14T12:54:42;27.60;92.00
23116;DHT22;11727;52.134;5.052;2023-06-14T12:57:07;27.60;92.70
23116;DHT22;11727;52.134;5.052;2023-06-14T12:59:33;27.70;93.70
23116;DHT22;11727;52.134;5.052;2023-06-14T13:02:19;27.70;93.10
23116;DHT22;11727;52.134;5.052;2023-06-14T13:04:47;27.70;93.40
23116;DHT22;11727;52.134;5.052;2023-06-14T13:07:13;27.60;92.50
23116;DHT22;11727;52.134;5.052;2023-06-14T13:09:40;27.60;93.00
23116;DHT22;11727;52.134;5.052;2023-06-14T13:12:07;27.40;93.30
23116;DHT22;11727;52.134;5.052;2023-06-14T13:14:33;27.50;92.70
23116;DHT22;11727;52.134;5.052;2023-06-14T13:16:58;27.50;93.20
23116;DHT22;11727;52.134;5.052;2023-06-14T13:19:24;27.50;93.10
23116;DHT22;11727;52.134;5.052;2023-06-14T13:21:49;27.50;93.00
23116;DHT22;11727;52.134;5.052;2023-06-14T13:24:15;27.40;93.00
23116;DHT22;11727;52.134;5.052;2023-06-14T13:26:41;27.40;93.00
23116;DHT22;11727;52.134;5.052;2023-06-14T13:29:06;27.30;92.80
23116;DHT22;11727;52.134;5.052;2023-06-14T13:31:32;27.20;92.90
23116;DHT22;11727;52.134;5.052;2023-06-14T13:34:07;27.20;93.40
23116;DHT22;11727;52.134;5.052;2023-06-14T13:41:48;27.30;93.80
23116;DHT22;11727;52.134;5.052;2023-06-14T13:44:14;27.30;94.00
23116;DHT22;11727;52.134;5.052;2023-06-14T13:46:44;27.50;93.30
23116;DHT22;11727;52.134;5.052;2023-06-14T13:49:10;27.50;93.30
23116;DHT22;11727;52.134;5.052;2023-06-14T13:51:37;27.40;93.00
23116;DHT22;11727;52.134;5.052;2023-06-14T13:54:04;27.40;93.00
23116;DHT22;11727;52.134;5.052;2023-06-14T13:56:30;27.40;92.50
23116;DHT22;11727;52.134;5.052;2023-06-14T13:58:57;27.30;92.50
23116;DHT22;11727;52.134;5.052;2023-06-14T14:01:22;27.30;92.70
23116;DHT22;11727;52.134;5.052;2023-06-14T14:03:49;27.20;92.90
23116;DHT22;11727;52.134;5.052;2023-06-14T14:06:15;27.30;92.90
23116;DHT22;11727;52.134;5.052;2023-06-14T14:08:42;27.10;93.20
23116;DHT22;11727;52.134;5.052;2023-06-14T14:11:08;27.10;93.70
23116;DHT22;11727;52.134;5.052;2023-06-14T14:13:34;27.20;92.40
23116;DHT22;11727;52.134;5.052;2023-06-14T14:16:02;27.20;93.10
23116;DHT22;11727;52.134;5.052;2023-06-14T14:18:28;27.30;92.10
23116;DHT22;11727;52.134;5.052;2023-06-14T14:20:54;27.20;92.50
23116;DHT22;11727;52.134;5.052;2023-06-14T14:23:21;27.30;92.50
23116;DHT22;11727;52.134;5.052;2023-06-14T14:25:47;27.30;92.40
23116;DHT22;11727;52.134;5.052;2023-06-14T14:28:13;27.30;92.90
23116;DHT22;11727;52.134;5.052;2023-06-14T14:30:44;27.40;92.50
23116;DHT22;11727;52.134;5.052;2023-06-14T14:33:09;27.50;92.40
23116;DHT22;11727;52.134;5.052;2023-06-14T14:35:41;27.50;92.30
23116;DHT22;11727;52.134;5.052;2023-06-14T14:38:07;27.40;91.70
23116;DHT22;11727;52.134;5.052;2023-06-14T14:40:33;27.40;92.20
23116;DHT22;11727;52.134;5.052;2023-06-14T14:42:58;27.40;92.80
23116;DHT22;11727;52.134;5.052;2023-06-14T14:45:24;27.40;92.20
23116;DHT22;11727;52.134;5.052;2023-06-14T14:47:49;27.40;92.30
23116;DHT22;11727;52.134;5.052;2023-06-14T14:50:15;27.30;92.30
23116;DHT22;11727;52.134;5.052;2023-06-14T14:52:41;27.40;92.40
23116;DHT22;11727;52.134;5.052;2023-06-14T14:55:08;27.50;92.70
23116;DHT22;11727;52.134;5.052;2023-06-14T14:57:33;27.40;91.60
23116;DHT22;11727;52.134;5.052;2023-06-14T14:59:59;27.40;92.20
23116;DHT22;11727;52.134;5.052;2023-06-14T15:02:24;27.40;92.70
23116;DHT22;11727;52.134;5.052;2023-06-14T15:04:50;27.50;92.00
23116;DHT22;11727;52.134;5.052;2023-06-14T15:07:17;27.60;92.80
23116;DHT22;11727;52.134;5.052;2023-06-14T15:09:42;27.50;92.30
23116;DHT22;11727;52.134;5.052;2023-06-14T15:12:08;27.40;92.20
23116;DHT22;11727;52.134;5.052;2023-06-14T15:14:36;27.40;92.40
23116;DHT22;11727;52.134;5.052;2023-06-14T15:17:01;27.50;92.90
23116;DHT22;11727;52.134;5.052;2023-06-14T15:19:28;27.50;92.20
23116;DHT22;11727;52.134;5.052;2023-06-14T15:21:53;27.50;92.00
23116;DHT22;11727;52.134;5.052;2023-06-14T15:24:19;27.50;92.30
23116;DHT22;11727;52.134;5.052;2023-06-14T15:26:45;27.60;92.10
23116;DHT22;11727;52.134;5.052;2023-06-14T15:29:11;27.60;92.40
23116;DHT22;11727;52.134;5.052;2023-06-14T15:31:36;27.60;92.50
23116;DHT22;11727;52.134;5.052;2023-06-14T15:34:02;27.60;92.30
23116;DHT22;11727;52.134;5.052;2023-06-14T15:36:28;27.60;92.10
23116;DHT22;11727;52.134;5.052;2023-06-14T15:38:53;27.60;92.30
23116;DHT22;11727;52.134;5.052;2023-06-14T15:41:19;27.60;92.50
23116;DHT22;11727;52.134;5.052;2023-06-14T15:43:44;27.60;92.20
23116;DHT22;11727;52.134;5.052;2023-06-14T15:46:10;27.60;92.40
23116;DHT22;11727;52.134;5.052;2023-06-14T15:48:35;27.70;92.60
23116;DHT22;11727;52.134;5.052;2023-06-14T15:51:01;27.80;92.90
23116;DHT22;11727;52.134;5.052;2023-06-14T15:53:27;27.70;91.90
23116;DHT22;11727;52.134;5.052;2023-06-14T15:55:52;27.70;92.30